Dauphin Barker Airport
CYDN : now visible

Aeroporto :











RITROVATECI SU...

 
LOGIN :

Iscrizione | Disclaimer

   EN    FR    IT 

 









Sommario :    VFR   VFR Marginale   IFR   IFR Intensivo   IFR Molto Intensivo
Visibilità : 
Base nubi : 
>= 8 km
>= 3000ft
5 / 8 km
1000 / 3000 ft
1500m / 5 km
500 / 1000 ft
800 / 1500m
200 / 500 ft
< 800m
< 200 ft
Simboli :   Temporali  Nebbia  Neve Forte  Precipitazioni Forti  Vento > 20 kt






- Altitudine del aeroporto : 999 ft
- Codice IATA : YDN


CYDN - Dauphin Barker

ULTIMO METAR :
  • 261100Z AUTO 28007KT 9SM OVC030 M01/ A2969 RMK TD MISG SLP068

METARs OBSOLETI :
  • 261000Z AUTO 26010KT 9SM OVC032 M01/ A2968 RMK TD MISG SLP067

TAF TAF CYDN
Valido dal 26 a 06 ore il 26 a 18 ore UTC


260555Z 2606/2618 28015G25KT P6SM OVC015
TEMPO 2606/2616 SCT015 BKN025
BECMG 2610/2612 27010G20KT
FM261600 27009KT 4SM -SN VV030
TEMPO 2616/2618 11/2SM -SHSN VV012 RMK FCST BASED ON AUTO OBS. NXT FCST BY 261200Z
FIR CZWG / America del Nord



MetMap, La meteo Aeronautica in un colpo d'occhio ! - Copyright ORBIFLY Dicembre 2007 - Disclaimer

ORBIFLY MET'MAP TEAM :

Programmazione e sviluppo : Alexandra Zaïnal
Concezione : Baudouin d'Aumeries
Aiuto per la programmazione : Marc-Olivier Méhu
Supporto tecnico e logistico : Manuel Goepfert
Aiuto per la traduzione : Arnaldo La Scala

Contatto : metmap@orbifly.com




FONTI E CREDITI :

   NOAA       Earth
Advisory